createdAt,value
2022-08-16T00:02:57.312Z,66.38
2022-08-16T00:06:00.116Z,67.15
2022-08-16T00:09:02.676Z,67.08
2022-08-16T00:12:06.226Z,67.57
2022-08-16T00:15:17.131Z,67.94
2022-08-16T00:18:22.249Z,68.01
2022-08-16T00:21:32.468Z,69.07
2022-08-16T00:24:35.526Z,69.69
2022-08-16T00:27:38.569Z,69.70
2022-08-16T00:30:42.069Z,70.62
2022-08-16T00:33:50.167Z,70.57
2022-08-16T00:36:55.726Z,70.80
2022-08-16T00:39:59.334Z,69.82
2022-08-16T00:43:05.822Z,68.93
2022-08-16T00:46:34.824Z,68.26
2022-08-16T00:49:39.730Z,67.97
2022-08-16T00:52:51.328Z,68.17
2022-08-16T00:55:56.979Z,67.76
2022-08-16T00:59:01.341Z,68.17
2022-08-16T01:02:30.739Z,68.06
2022-08-16T01:05:32.848Z,66.42
2022-08-16T01:08:37.121Z,67.43
2022-08-16T01:11:54.062Z,68.49
2022-08-16T01:15:00.243Z,70.04
2022-08-16T01:18:07.142Z,70.51
2022-08-16T01:21:33.895Z,70.71
2022-08-16T01:24:52.250Z,70.19
2022-08-16T01:28:00.510Z,70.29
2022-08-16T01:31:08.228Z,68.13
2022-08-16T01:34:25.291Z,67.04
2022-08-16T01:37:35.731Z,65.29
2022-08-16T01:40:40.934Z,65.71
2022-08-16T01:43:45.585Z,66.17
2022-08-16T01:46:57.597Z,66.64
2022-08-16T01:51:07.908Z,66.92
2022-08-16T01:53:24.695Z,67.01
2022-08-16T01:56:30.320Z,66.92
2022-08-16T01:59:35.628Z,67.15
2022-08-16T02:02:42.481Z,67.52
2022-08-16T02:05:46.791Z,67.67
2022-08-16T02:08:55.540Z,67.62
2022-08-16T02:12:00.057Z,67.81
2022-08-16T02:15:26.074Z,67.78
2022-08-16T02:18:30.045Z,67.81
2022-08-16T02:21:34.779Z,67.98
2022-08-16T02:24:42.115Z,67.79
2022-08-16T02:27:51.227Z,68.13
2022-08-16T02:31:02.124Z,68.95
2022-08-16T02:34:06.439Z,69.53
2022-08-16T02:37:10.885Z,69.49
2022-08-16T02:40:17.022Z,70.31
2022-08-16T02:43:19.775Z,70.98
2022-08-16T02:46:30.185Z,70.65
2022-08-16T02:49:59.261Z,70.28
2022-08-16T02:53:01.205Z,70.32
2022-08-16T02:56:05.879Z,69.63
2022-08-16T02:59:14.571Z,69.28
2022-08-16T03:02:18.400Z,68.69
2022-08-16T03:05:21.668Z,69.08
2022-08-16T03:08:50.809Z,69.06
2022-08-16T03:11:48.826Z,69.54
2022-08-16T03:14:53.274Z,69.60
2022-08-16T03:17:57.660Z,69.74
2022-08-16T03:21:00.706Z,69.59
2022-08-16T03:24:28.793Z,69.90
2022-08-16T03:27:32.993Z,70.22
2022-08-16T03:30:40.262Z,69.54
2022-08-16T03:33:44.765Z,69.51
2022-08-16T03:36:48.192Z,69.26
2022-08-16T03:39:56.354Z,69.10
2022-08-16T03:43:19.369Z,69.22
2022-08-16T03:46:48.078Z,69.16
2022-08-16T03:49:51.551Z,69.99
2022-08-16T03:53:01.314Z,70.89
2022-08-16T03:56:18.548Z,71.19
2022-08-16T03:59:23.674Z,70.96
2022-08-16T04:02:31.487Z,71.39
2022-08-16T04:05:48.467Z,71.88
2022-08-16T04:08:51.813Z,72.30
2022-08-16T04:11:54.887Z,72.37
2022-08-16T04:14:58.336Z,72.56
2022-08-16T04:18:03.072Z,72.67
2022-08-16T04:21:06.736Z,72.43
2022-08-16T04:24:10.072Z,72.01
2022-08-16T04:27:15.502Z,71.91
2022-08-16T04:30:31.983Z,71.56
2022-08-16T04:33:38.058Z,70.73
2022-08-16T04:36:54.484Z,69.75
2022-08-16T04:39:57.564Z,69.72
2022-08-16T04:43:01.304Z,69.74
2022-08-16T04:46:05.273Z,68.99
2022-08-16T04:49:43.579Z,68.73
2022-08-16T04:52:51.480Z,67.60
2022-08-16T04:56:00.293Z,66.14
2022-08-16T04:59:03.956Z,65.67
2022-08-16T05:02:42.252Z,64.31
2022-08-16T05:05:36.743Z,63.91
2022-08-16T05:08:48.834Z,63.60
2022-08-16T05:11:51.860Z,64.14
2022-08-16T05:15:02.526Z,63.70
2022-08-16T05:18:06.183Z,63.69
2022-08-16T05:21:21.620Z,63.61
2022-08-16T05:24:27.181Z,63.90
2022-08-16T05:27:31.865Z,63.92
2022-08-16T05:30:50.497Z,63.79
2022-08-16T05:33:54.611Z,62.94
2022-08-16T05:36:58.688Z,62.35
2022-08-16T05:40:06.184Z,62.44
2022-08-16T05:43:12.064Z,61.14
2022-08-16T05:46:28.819Z,61.00
2022-08-16T05:49:38.477Z,59.33
2022-08-16T05:52:44.905Z,57.96
2022-08-16T05:55:47.812Z,56.81
2022-08-16T05:58:51.833Z,55.39
2022-08-16T06:01:55.226Z,54.90
2022-08-16T06:04:59.019Z,53.89
2022-08-16T06:08:03.921Z,53.42
2022-08-16T06:11:13.586Z,52.39
2022-08-16T06:14:18.869Z,52.39
2022-08-16T06:17:23.252Z,51.62
2022-08-16T06:20:35.574Z,50.14
2022-08-16T06:23:41.505Z,49.01
2022-08-16T06:26:56.041Z,48.16
2022-08-16T06:30:03.204Z,48.27
2022-08-16T06:33:07.387Z,48.81
2022-08-16T06:36:16.594Z,48.97
2022-08-16T06:39:20.545Z,48.05
2022-08-16T06:42:24.082Z,47.87
2022-08-16T06:45:38.036Z,47.67
2022-08-16T06:48:51.157Z,47.71
2022-08-16T06:51:54.920Z,47.77
2022-08-16T06:55:12.861Z,48.01
2022-08-16T06:58:22.366Z,47.58
2022-08-16T07:01:45.085Z,46.63
2022-08-16T07:04:49.657Z,46.51
2022-08-16T07:07:56.783Z,48.15
2022-08-16T07:11:00.068Z,48.42
2022-08-16T07:14:25.217Z,48.71
2022-08-16T07:17:28.594Z,48.65
2022-08-16T07:20:47.461Z,48.27
2022-08-16T07:23:57.981Z,47.51
2022-08-16T07:27:12.579Z,47.34
2022-08-16T07:30:39.877Z,47.09
2022-08-16T07:33:52.173Z,46.64
2022-08-16T07:36:58.807Z,45.79
2022-08-16T07:40:07.510Z,45.49
2022-08-16T07:43:18.513Z,44.89
2022-08-16T07:46:37.641Z,43.43
2022-08-16T07:49:53.112Z,42.21
2022-08-16T07:53:01.938Z,42.29
2022-08-16T07:56:06.702Z,42.19
2022-08-16T07:59:10.650Z,42.25
2022-08-16T08:02:20.420Z,42.34
2022-08-16T08:05:35.740Z,42.07
2022-08-16T08:08:51.812Z,42.13
2022-08-16T08:12:00.998Z,42.72
2022-08-16T08:15:11.226Z,43.04
2022-08-16T08:18:29.120Z,43.12
2022-08-16T08:22:01.393Z,43.11
2022-08-16T08:24:59.176Z,44.01
2022-08-16T08:28:11.055Z,44.03
2022-08-16T08:31:17.284Z,42.87
2022-08-16T08:34:23.109Z,40.83
2022-08-16T08:37:27.598Z,40.00
2022-08-16T08:40:56.884Z,38.85
2022-08-16T08:44:00.194Z,37.57
2022-08-16T08:47:10.920Z,36.71
2022-08-16T08:50:31.598Z,36.48
2022-08-16T08:53:36.191Z,36.00
2022-08-16T08:56:45.901Z,35.46
2022-08-16T08:59:52.903Z,35.71
2022-08-16T09:02:57.076Z,35.40
2022-08-16T09:06:01.292Z,35.18
2022-08-16T09:09:06.705Z,34.00
2022-08-16T09:12:35.407Z,33.92
2022-08-16T09:15:33.740Z,33.69
2022-08-16T09:18:36.919Z,33.31
2022-08-16T09:21:40.680Z,33.62
2022-08-16T09:24:51.724Z,33.14
2022-08-16T09:27:58.100Z,33.27
2022-08-16T09:31:13.485Z,32.76
2022-08-16T09:34:19.511Z,32.45
2022-08-16T09:37:29.439Z,32.55
2022-08-16T09:40:42.991Z,32.12
2022-08-16T09:43:59.114Z,31.69
2022-08-16T09:47:03.643Z,31.52
2022-08-16T09:50:14.637Z,31.05
2022-08-16T09:53:26.797Z,30.21
2022-08-16T09:56:33.789Z,30.04
2022-08-16T09:59:38.592Z,30.02
2022-08-16T10:02:44.184Z,29.96
2022-08-16T10:05:50.931Z,29.16
2022-08-16T10:09:05.410Z,29.66
2022-08-16T10:12:28.346Z,29.21
2022-08-16T10:15:31.680Z,29.67
2022-08-16T10:18:54.047Z,29.50
2022-08-16T10:21:59.812Z,29.40
2022-08-16T10:25:08.802Z,28.34
2022-08-16T10:28:29.018Z,28.64
2022-08-16T10:31:46.410Z,27.18
2022-08-16T10:34:51.398Z,26.70
2022-08-16T10:37:55.302Z,26.92
2022-08-16T10:40:59.643Z,26.67
2022-08-16T10:44:03.448Z,26.21
2022-08-16T10:47:12.012Z,26.46
2022-08-16T10:50:19.747Z,26.37
2022-08-16T10:53:22.531Z,25.38
2022-08-16T10:56:51.908Z,26.30
2022-08-16T10:59:58.253Z,25.50
2022-08-16T11:03:04.888Z,24.92
2022-08-16T11:06:12.000Z,24.81
2022-08-16T11:09:25.337Z,24.55
2022-08-16T11:12:28.972Z,24.45
2022-08-16T11:15:32.813Z,24.23
2022-08-16T11:19:04.872Z,25.47
2022-08-16T11:22:39.564Z,27.54
2022-08-16T11:32:13.472Z,33.90
2022-08-16T11:38:55.458Z,33.82
2022-08-16T11:42:02.521Z,35.36
2022-08-16T11:45:06.053Z,34.73
2022-08-16T11:48:09.750Z,32.78
2022-08-16T11:51:13.175Z,32.99
2022-08-16T11:54:21.819Z,34.41
2022-08-16T11:57:25.413Z,35.85
2022-08-16T12:00:33.761Z,34.37
2022-08-16T12:03:54.414Z,34.09
2022-08-16T12:06:57.694Z,34.51
2022-08-16T12:10:03.330Z,34.92
2022-08-16T12:13:07.954Z,33.80
2022-08-16T12:16:17.551Z,34.37
2022-08-16T12:19:33.845Z,34.79
2022-08-16T12:22:39.135Z,34.34
2022-08-16T12:25:41.829Z,32.92
2022-08-16T12:28:56.111Z,32.61
2022-08-16T12:32:12.097Z,32.18
2022-08-16T12:35:22.707Z,32.10
2022-08-16T12:38:41.715Z,31.57
2022-08-16T12:41:48.386Z,31.85
2022-08-16T12:44:51.742Z,33.86
2022-08-16T12:48:33.654Z,32.69
2022-08-16T12:51:58.872Z,33.52
2022-08-16T12:55:07.164Z,34.67
2022-08-16T12:58:14.223Z,38.91
2022-08-16T13:01:36.412Z,35.60
2022-08-16T13:04:39.022Z,36.47
2022-08-16T13:07:51.484Z,38.23
2022-08-16T13:10:57.104Z,36.89
2022-08-16T13:13:59.976Z,36.66
2022-08-16T13:17:06.582Z,36.63
2022-08-16T13:20:14.558Z,37.14
2022-08-16T13:23:19.190Z,38.04
2022-08-16T13:26:23.165Z,37.30
2022-08-16T13:29:26.174Z,36.37
2022-08-16T13:32:43.196Z,35.82
2022-08-16T13:35:55.870Z,34.23
2022-08-16T13:39:01.007Z,35.55
2022-08-16T13:42:04.354Z,35.55
2022-08-16T13:45:08.940Z,34.91
2022-08-16T13:48:21.940Z,35.60
2022-08-16T13:51:30.694Z,35.54
2022-08-16T13:54:34.559Z,35.13
2022-08-16T13:57:53.647Z,36.11
2022-08-16T14:01:00.660Z,34.33
2022-08-16T14:04:05.427Z,33.72
2022-08-16T14:07:11.100Z,32.71
2022-08-16T14:10:15.496Z,33.22
2022-08-16T14:13:21.081Z,33.17
2022-08-16T14:16:33.994Z,33.40
2022-08-16T14:19:37.260Z,32.59
2022-08-16T14:22:52.540Z,32.43
2022-08-16T14:25:57.649Z,32.83
2022-08-16T14:29:03.748Z,32.48
2022-08-16T14:32:08.091Z,31.22
2022-08-16T14:35:36.677Z,31.57
2022-08-16T14:38:45.522Z,31.36
2022-08-16T14:41:53.682Z,31.39
2022-08-16T14:45:00.383Z,31.97
2022-08-16T14:48:03.925Z,33.10
2022-08-16T14:51:10.589Z,33.38
2022-08-16T14:54:15.098Z,34.40
2022-08-16T14:57:18.167Z,34.78
2022-08-16T15:00:32.741Z,35.63
2022-08-16T15:03:37.467Z,32.88
2022-08-16T15:06:40.658Z,32.79
2022-08-16T15:10:00.604Z,33.24
2022-08-16T15:13:07.125Z,34.66
2022-08-16T15:16:12.368Z,39.47
2022-08-16T15:19:15.654Z,41.27
2022-08-16T15:22:32.424Z,39.81
2022-08-16T15:25:41.226Z,40.09
2022-08-16T15:28:44.488Z,40.02
2022-08-16T15:31:48.213Z,37.47
2022-08-16T15:34:51.983Z,34.99
2022-08-16T15:38:08.866Z,31.70
2022-08-16T15:41:34.259Z,31.16
2022-08-16T15:44:42.743Z,32.41
2022-08-16T15:47:55.845Z,31.51
2022-08-16T15:51:08.282Z,31.51
2022-08-16T15:54:21.007Z,32.99
2022-08-16T15:57:51.077Z,35.45
2022-08-16T16:01:01.786Z,37.20
2022-08-16T16:04:05.176Z,37.84
2022-08-16T16:07:10.716Z,37.24
2022-08-16T16:10:18.980Z,36.58
2022-08-16T16:13:23.366Z,37.38
2022-08-16T16:16:26.458Z,36.58
2022-08-16T16:19:30.387Z,35.15
2022-08-16T16:22:34.081Z,35.79
2022-08-16T16:25:37.990Z,36.04
2022-08-16T16:29:05.822Z,36.40
2022-08-16T16:32:07.643Z,35.95
2022-08-16T16:35:11.540Z,36.23
2022-08-16T16:38:15.721Z,34.46
2022-08-16T16:41:26.618Z,30.98
2022-08-16T16:44:33.613Z,30.12
2022-08-16T16:47:41.711Z,30.74
2022-08-16T16:50:50.770Z,31.76
2022-08-16T16:53:55.914Z,32.10
2022-08-16T16:56:58.923Z,31.54
2022-08-16T17:00:37.719Z,31.06
2022-08-16T17:03:29.124Z,33.12
2022-08-16T17:06:32.029Z,36.82
2022-08-16T17:09:40.146Z,37.78
2022-08-16T17:12:46.637Z,38.05
2022-08-16T17:15:52.350Z,39.93
2022-08-16T17:19:16.627Z,40.96
2022-08-16T17:22:21.010Z,41.21
2022-08-16T17:25:26.352Z,41.90
2022-08-16T17:28:57.661Z,42.92
2022-08-16T17:32:47.219Z,43.24
2022-08-16T17:35:33.727Z,43.60
2022-08-16T17:38:43.798Z,44.39
2022-08-16T17:41:47.212Z,44.61
2022-08-16T17:44:50.112Z,45.63
2022-08-16T17:47:53.334Z,47.23
2022-08-16T17:50:56.985Z,47.99
2022-08-16T17:53:59.781Z,49.05
2022-08-16T17:57:02.701Z,49.48
2022-08-16T18:00:09.713Z,50.26
2022-08-16T18:03:18.626Z,50.06
2022-08-16T18:06:41.457Z,49.60
2022-08-16T18:09:43.960Z,49.86
2022-08-16T18:12:55.163Z,47.37
2022-08-16T18:15:59.050Z,48.25
2022-08-16T18:19:02.486Z,48.81
2022-08-16T18:22:20.347Z,49.81
2022-08-16T18:25:23.385Z,49.91
2022-08-16T18:28:27.480Z,48.94
2022-08-16T18:31:32.739Z,47.84
2022-08-16T18:34:35.686Z,47.90
2022-08-16T18:37:38.627Z,48.66
2022-08-16T18:40:42.583Z,49.43
2022-08-16T18:44:22.587Z,49.78
2022-08-16T18:47:08.979Z,49.98
2022-08-16T18:50:13.114Z,50.56
2022-08-16T18:53:19.378Z,51.37
2022-08-16T18:56:22.248Z,52.72
2022-08-16T18:59:30.757Z,51.90
2022-08-16T19:02:57.922Z,51.82
2022-08-16T19:06:04.202Z,54.12
2022-08-16T19:09:07.089Z,54.32
2022-08-16T19:12:09.965Z,53.99
2022-08-16T19:15:16.483Z,53.14
2022-08-16T19:18:19.815Z,53.83
2022-08-16T19:21:22.645Z,54.56
2022-08-16T19:24:29.308Z,54.77
2022-08-16T19:27:32.756Z,55.71
2022-08-16T19:30:37.608Z,56.33
2022-08-16T19:33:52.004Z,56.34
2022-08-16T19:36:58.781Z,56.48
2022-08-16T19:40:01.917Z,57.57
2022-08-16T19:43:07.768Z,59.10
2022-08-16T19:46:10.681Z,59.14
2022-08-16T19:49:16.212Z,58.85
2022-08-16T19:52:26.616Z,58.58
2022-08-16T19:55:29.947Z,59.00
2022-08-16T19:58:33.601Z,59.46
2022-08-16T20:01:41.897Z,60.19
2022-08-16T20:04:46.954Z,60.23
2022-08-16T20:07:49.902Z,60.49
2022-08-16T20:11:03.388Z,60.42
2022-08-16T20:14:05.962Z,61.01
2022-08-16T20:17:10.025Z,61.31
2022-08-16T20:20:18.208Z,61.50
2022-08-16T20:23:24.959Z,62.24
2022-08-16T20:26:29.456Z,62.61
2022-08-16T20:29:32.286Z,62.87
2022-08-16T20:32:35.944Z,63.09
2022-08-16T20:35:39.628Z,63.01
2022-08-16T20:38:45.584Z,63.46
2022-08-16T20:41:48.388Z,64.05
2022-08-16T20:44:52.484Z,64.71
2022-08-16T20:47:55.686Z,65.07
2022-08-16T20:50:58.327Z,65.05
2022-08-16T20:54:01.192Z,66.08
2022-08-16T20:57:04.472Z,66.40
2022-08-16T21:00:10.430Z,67.38
2022-08-16T21:03:16.471Z,67.43
2022-08-16T21:06:20.626Z,68.28
2022-08-16T21:09:28.918Z,67.91
2022-08-16T21:12:34.575Z,68.33
2022-08-16T21:15:40.129Z,68.79
2022-08-16T21:18:43.124Z,69.82
2022-08-16T21:21:46.001Z,70.60
2022-08-16T21:24:49.127Z,71.25
2022-08-16T21:28:40.967Z,71.35
2022-08-16T21:31:19.286Z,72.46
2022-08-16T21:34:21.782Z,73.75
2022-08-16T21:37:24.597Z,74.03
2022-08-16T21:40:29.840Z,75.35
2022-08-16T21:43:33.385Z,74.70
2022-08-16T21:46:36.046Z,74.82
2022-08-16T21:49:38.997Z,74.52
2022-08-16T21:52:41.538Z,75.56
2022-08-16T21:55:46.970Z,75.34
2022-08-16T21:58:52.993Z,76.33
2022-08-16T22:01:56.448Z,76.94
2022-08-16T22:05:00.371Z,77.64
2022-08-16T22:08:03.563Z,77.11
2022-08-16T22:11:09.520Z,79.23
2022-08-16T22:14:12.436Z,82.49
2022-08-16T22:17:15.829Z,84.22
2022-08-16T22:20:20.819Z,84.25
2022-08-16T22:23:25.596Z,84.61
2022-08-16T22:26:31.788Z,84.71
2022-08-16T22:29:34.976Z,84.71
2022-08-16T22:32:44.629Z,84.52
2022-08-16T22:35:50.932Z,84.02
2022-08-16T22:38:57.388Z,84.22
2022-08-16T22:42:08.943Z,83.83
2022-08-16T22:45:12.201Z,84.80
2022-08-16T22:48:16.726Z,85.27
2022-08-16T22:51:20.380Z,85.34
2022-08-16T22:54:48.217Z,84.45
2022-08-16T22:57:46.155Z,84.76
2022-08-16T23:00:50.048Z,85.82
2022-08-16T23:03:55.436Z,86.01
2022-08-16T23:06:58.269Z,87.08
2022-08-16T23:10:01.534Z,86.91
2022-08-16T23:13:06.244Z,87.57
2022-08-16T23:16:11.141Z,88.50
2022-08-16T23:19:16.542Z,89.43
2022-08-16T23:22:19.081Z,90.08
2022-08-16T23:25:30.983Z,91.17
2022-08-16T23:28:34.074Z,90.04
2022-08-16T23:31:37.536Z,92.40
2022-08-16T23:34:41.197Z,93.55
2022-08-16T23:37:44.155Z,94.17
2022-08-16T23:40:47.484Z,94.58
2022-08-16T23:43:50.239Z,94.45
2022-08-16T23:46:52.804Z,94.36
2022-08-16T23:50:01.462Z,94.51
2022-08-16T23:53:19.965Z,93.52
2022-08-16T23:56:22.900Z,90.22
2022-08-16T23:59:25.536Z,88.99
